Latest Weather Observations for Yanco

IDN60801

Issued at 7:32 pm EDT Wednesday 7 December 2016 (issued every 30 minutes, with the page automatically refreshed every 10 minutes)

About weather observations | Map of weather stations | Latest weather observations for NSW | Other Formats
Station Details ID: 074037 Name: YANCO AGRICULTURAL INSTITUTE Lat: -34.62 Lon: 146.43 Height: 164.0 m
Data from the previous 72 hours. | See also: Recent months at Yanco
Date/Time
EDT
Temp
°C
App
Temp
°C
Dew
Point
°C
Rel
Hum
%
Delta-T
°C
Wind Press
QNH
hPa
Press
MSL
hPa
Rain since
9am
mm
Dir  Spd
km/h
Gust
km/h
Spd
kts
Gust
kts
07/07:30pm 29.4 27.0 4.1 20 13.0 WSW 6 9 3 5 - - 0.0
07/07:00pm 30.0 27.2 3.1 18 13.6 WNW 7 15 4 8 - - 0.0
07/06:30pm 30.2 26.7 3.3 18 13.7 W 11 17 6 9 - - 0.0
07/06:00pm 31.4 29.0 4.2 18 14.2 W 6 15 3 8 - - 0.0
07/05:30pm 30.9 26.6 3.0 17 14.2 W 15 24 8 13 - - 0.0
07/05:00pm 30.4 26.0 2.6 17 14.0 WNW 15 22 8 12 - - 0.0
07/04:30pm 30.3 26.5 1.7 16 14.2 NW 11 19 6 10 - - 0.0
07/04:00pm 30.2 25.6 1.6 16 14.2 NW 15 22 8 12 - - 0.0
07/03:30pm 30.2 25.2 1.6 16 14.2 NW 17 28 9 15 - - 0.0
07/03:00pm 29.9 26.6 2.2 17 13.8 W 9 22 5 12 - - 0.0
07/02:30pm 30.4 26.5 3.4 18 13.8 WNW 13 22 7 12 - - 0.0
07/02:00pm 29.0 24.4 3.8 20 12.9 W 17 28 9 15 - - 0.0
07/01:30pm 28.2 25.8 4.5 22 12.2 SSW 6 15 3 8 - - 0.0
07/01:00pm 28.0 24.9 5.6 24 11.7 NNW 11 20 6 11 - - 0.0
07/12:30pm 27.8 23.2 3.5 21 12.2 WSW 17 28 9 15 - - 0.0
07/12:00pm 27.1 24.7 7.0 28 10.7 WSW 9 15 5 8 - - 0.0
07/11:30am 26.9 24.0 6.3 27 10.8 W 11 19 6 10 - - 0.0
07/11:00am 25.2 23.4 7.3 32 9.5 W 6 13 3 7 - - 0.0
07/10:30am 24.2 22.8 9.0 38 8.3 W 6 13 3 7 - - 0.0
07/10:00am 22.9 21.6 9.3 42 7.4 WSW 6 13 3 7 - - 0.0
07/09:30am 21.6 20.7 10.7 50 6.0 WNW 6 9 3 5 - - 0.0
07/09:00am 19.2 18.2 10.2 56 4.9 WNW 6 9 3 5 - - 0.0
07/08:30am 17.7 16.8 10.8 64 3.7 NW 6 7 3 4 - - 0.0
07/08:00am 16.2 15.2 10.3 68 3.1 NNW 6 9 3 5 - - 0.0
07/07:30am 15.0 14.0 10.2 73 2.5 NW 6 7 3 4 - - 0.0
07/07:00am 13.8 13.0 9.8 77 2.1 NNW 4 4 2 2 - - 0.0
07/06:30am 12.7 11.5 9.5 81 1.6 N 6 7 3 4 - - 0.0
07/06:00am 12.8 11.6 9.6 81 1.6 NNW 6 9 3 5 - - 0.0
07/05:30am 12.5 11.0 9.1 80 1.7 NW 7 9 4 5 - - 0.0
07/05:00am 13.0 11.6 9.4 79 1.8 N 7 9 4 5 - - 0.0
07/04:30am 12.9 11.5 9.5 80 1.7 NNW 7 9 4 5 - - 0.0
07/04:00am 13.1 11.7 9.7 80 1.8 NNW 7 7 4 4 - - 0.0
07/03:30am 13.4 12.1 9.8 79 1.9 N 7 9 4 5 - - 0.0
07/03:00am 13.5 12.1 9.7 78 2.0 N 7 11 4 6 - - 0.0
07/02:30am 14.0 12.2 9.6 75 2.3 N 9 11 5 6 - - 0.0
07/02:00am 14.2 12.8 9.6 74 2.4 NNW 7 9 4 5 - - 0.0
07/01:30am 14.7 13.3 9.5 71 2.7 NNW 7 9 4 5 - - 0.0
07/01:00am 15.2 13.7 9.3 68 3.1 NNW 7 9 4 5 - - 0.0
07/12:30am 16.0 14.9 9.9 67 3.2 NNW 6 7 3 4 - - 0.0
07/12:00am 16.3 15.2 9.9 66 3.4 NNW 6 9 3 5 - - 0.0
 
Date/Time
EDT
Temp
°C
App
Temp
°C
Dew
Point
°C
Rel
Hum
%
Delta-T
°C
Wind Press
QNH
hPa
Press
MSL
hPa
Rain since
9am
mm
Dir  Spd
km/h
Gust
km/h
Spd
kts
Gust
kts
06/11:30pm 16.7 15.4 9.9 64 3.6 NNW 7 11 4 6 - - 0.0
06/11:00pm 17.3 15.9 9.5 60 4.1 WNW 7 11 4 6 - - 0.0
06/10:30pm 17.6 16.3 9.8 60 4.1 WNW 7 11 4 6 - - 0.0
06/10:00pm 17.9 16.5 9.5 58 4.4 WNW 7 9 4 5 - - 0.0
06/09:30pm 18.4 16.6 9.5 56 4.7 WNW 9 13 5 7 - - 0.0
06/09:00pm 18.9 16.7 9.4 54 5.0 NW 11 17 6 9 - - 0.0
06/08:30pm 19.3 17.1 9.2 52 5.4 NW 11 17 6 9 - - 0.0
06/08:00pm 19.8 17.5 9.1 50 5.7 NW 11 17 6 9 - - 0.0
06/07:30pm 20.4 18.3 9.6 50 5.8 NW 11 17 6 9 - - 0.0
06/07:00pm 21.4 19.6 9.3 46 6.5 WNW 9 13 5 7 - - 0.0
06/06:30pm 21.8 19.8 10.0 47 6.4 WNW 11 17 6 9 - - 0.0
06/06:00pm 22.1 19.6 9.6 45 6.8 WNW 13 19 7 10 - - 0.0
06/05:30pm 22.1 19.9 9.3 44 6.9 WNW 11 17 6 9 - - 0.0
06/05:00pm 22.2 20.2 10.0 46 6.7 WNW 11 17 6 9 - - 0.0
06/04:30pm 22.4 20.0 9.9 45 6.8 W 13 20 7 11 - - 0.0
06/04:00pm 22.8 21.2 10.3 45 6.9 WNW 9 15 5 8 - - 0.0
06/03:30pm 22.6 20.2 10.1 45 6.9 WNW 13 20 7 11 - - 0.0
06/03:00pm 23.1 20.9 9.5 42 7.4 WNW 11 17 6 9 - - 0.0
06/02:30pm 23.4 21.3 11.1 46 6.9 W 13 19 7 10 - - 0.0
06/02:00pm 23.1 20.9 12.1 50 6.3 W 15 20 8 11 - - 0.0
06/01:30pm 23.3 21.6 12.3 50 6.3 W 13 20 7 11 - - 0.0
06/01:00pm 22.5 20.5 12.7 54 5.6 W 15 20 8 11 - - 0.0
06/12:30pm 21.9 20.6 13.8 60 4.7 W 13 20 7 11 - - 0.0
06/12:00pm 20.6 20.2 15.2 71 3.2 WNW 11 17 6 9 - - 0.0
06/11:30am 20.0 19.2 15.2 74 2.8 WNW 13 19 7 10 - - 0.0
06/11:00am 19.7 18.4 14.7 73 2.9 NW 15 20 8 11 - - 0.0
06/10:30am 19.3 18.6 15.4 78 2.3 NW 13 19 7 10 - - 0.0
06/10:00am 18.7 18.3 15.2 80 2.1 NW 11 17 6 9 - - 0.0
06/09:30am 18.9 18.6 15.4 80 2.1 NNW 11 13 6 7 - - 0.0
06/09:00am 18.9 19.3 15.2 79 2.2 NNW 7 9 4 5 - - 1.2
06/08:30am 19.1 19.6 14.1 73 2.9 NW 4 6 2 3 - - 1.2
06/08:00am 18.8 18.8 14.1 74 2.7 W 7 11 4 6 - - 1.2
06/07:30am 18.9 18.1 15.2 79 2.2 W 13 19 7 10 - - 1.2
06/07:00am 18.0 18.4 16.2 89 1.1 WSW 9 13 5 7 - - 1.2
06/06:30am 17.5 18.4 16.0 91 0.9 SW 6 7 3 4 - - 1.2
06/06:00am 17.9 18.8 16.1 89 1.1 W 6 6 3 3 - - 1.2
06/05:30am 18.2 19.5 16.2 88 1.2 N 4 6 2 3 - - 1.2
06/05:00am 18.3 19.8 16.6 90 1.0 NNW 4 6 2 3 - - 1.2
06/04:30am 18.0 18.4 16.2 89 1.1 NNE 9 13 5 7 - - 1.0
06/04:00am 18.1 17.6 15.9 87 1.3 WSW 13 17 7 9 - - 0.6
06/03:30am 19.2 20.4 15.9 81 2.0 NW 4 6 2 3 - - 0.4
06/03:00am 19.5 21.9 16.9 85 1.6 CALM 0 2 0 1 - - 0.4
06/02:30am 19.7 21.0 16.2 80 2.1 W 4 6 2 3 - - 0.4
06/02:00am 20.4 21.2 15.8 75 2.8 WSW 6 7 3 4 - - 0.4
06/01:30am 20.8 23.4 17.4 81 2.1 CALM 0 0 0 0 - - 0.4
06/01:00am 21.0 23.5 17.2 79 2.3 CALM 0 0 0 0 - - 0.4
06/12:30am 21.1 23.2 17.1 78 2.5 S 2 7 1 4 - - 0.4
06/12:00am 21.2 23.5 17.8 81 2.1 SSW 2 9 1 5 - - 0.4
 
Date/Time
EDT
Temp
°C
App
Temp
°C
Dew
Point
°C
Rel
Hum
%
Delta-T
°C
Wind Press
QNH
hPa
Press
MSL
hPa
Rain since
9am
mm
Dir  Spd
km/h
Gust
km/h
Spd
kts
Gust
kts
05/11:30pm 21.4 22.2 18.2 82 2.0 WSW 11 13 6 7 - - 0.4
05/11:00pm 21.5 23.9 18.7 84 1.8 SW 4 6 2 3 - - 0.4
05/10:30pm 21.5 23.8 19.4 88 1.3 SW 6 7 3 4 - - 0.4
05/10:00pm 21.4 23.4 19.1 87 1.5 SSW 7 11 4 6 - - 0.4
05/09:30pm 21.5 22.4 19.2 87 1.5 SW 13 22 7 12 - - 0.4
05/09:00pm 24.7 20.6 17.4 64 4.6 WSW 35 50 19 27 - - 0.0
05/08:53pm 26.4 23.8 17.7 58 5.5 SW 28 48 15 26 - - 0.0
05/08:30pm 26.9 26.7 18.5 60 5.4 WSW 17 28 9 15 - - 0.0
05/08:00pm 29.7 29.0 15.4 42 8.8 NW 13 19 7 10 - - 0.0
05/07:30pm 30.3 29.9 15.2 40 9.3 NNW 11 17 6 9 - - 0.0
05/07:00pm 30.9 30.2 15.3 38 9.7 NNW 13 19 7 10 - - 0.0
05/06:30pm 32.7 32.2 14.8 34 11.1 WNW 11 19 6 10 - - 0.0
05/06:00pm 32.1 31.4 14.3 34 10.9 W 11 15 6 8 - - 0.0
05/05:30pm 32.4 31.8 14.5 33 11.0 WNW 11 15 6 8 - - 0.0
05/05:00pm 33.0 32.2 15.0 33 11.2 W 13 22 7 12 - - 0.0
05/04:30pm 33.2 32.8 15.2 33 11.2 WNW 11 15 6 8 - - 0.0
05/04:00pm 32.7 31.6 14.3 32 11.3 W 13 20 7 11 - - 0.0
05/03:30pm 32.7 31.6 14.3 32 11.3 WNW 13 26 7 14 - - 0.0
05/03:00pm 33.9 32.6 14.9 32 11.8 WNW 15 24 8 13 - - 0.0
05/02:30pm 32.3 31.8 14.9 35 10.8 WNW 11 17 6 9 - - 0.0
05/02:00pm 31.6 30.1 16.4 40 9.6 WSW 19 26 10 14 - - 0.0
05/01:30pm 31.3 30.0 15.7 39 9.7 WSW 17 24 9 13 - - 0.0
05/01:00pm 31.6 30.8 15.1 36 10.2 W 13 22 7 12 - - 0.0
05/12:30pm 31.2 31.0 14.8 37 10.1 W 9 19 5 10 - - 0.0
05/12:00pm 31.2 31.3 15.6 39 9.7 WSW 9 19 5 10 - - 0.0
05/11:30am 30.0 29.3 15.3 41 9.1 W 13 19 7 10 - - 0.0
05/11:00am 29.5 28.7 15.2 41 8.8 W 13 20 7 11 - - 0.0
05/10:30am 28.7 28.7 16.3 47 7.7 NW 11 15 6 8 - - 0.0
05/10:00am 27.9 29.0 17.1 51 6.8 NW 7 9 4 5 - - 0.0
05/09:30am 26.2 28.1 16.7 56 5.9 WNW 2 4 1 2 - - 0.0
05/09:00am 26.0 27.4 16.5 55 5.9 NW 4 6 2 3 - - 0.0
05/08:30am 25.1 27.3 16.5 59 5.3 CALM 0 0 0 0 - - 0.0
05/08:00am 24.0 26.2 16.5 63 4.6 CALM 0 6 0 3 - - 0.0
05/07:30am 23.7 25.5 16.5 64 4.4 NE 2 2 1 1 - - 0.0
05/07:00am 23.1 23.9 15.9 64 4.4 NE 6 9 3 5 - - 0.0
05/06:30am 22.5 21.7 16.1 67 3.9 E 15 17 8 9 - - 0.0
05/06:00am 22.3 21.6 16.3 69 3.7 E 15 19 8 10 - - 0.0
05/05:30am 21.9 21.2 16.4 71 3.4 E 15 19 8 10 - - 0.0
05/05:00am 21.4 22.7 16.1 72 3.2 SE 4 6 2 3 - - 0.0
05/04:30am 21.6 21.4 16.6 73 3.1 ESE 13 15 7 8 - - 0.0
05/04:00am 20.8 22.0 16.0 74 2.9 ESE 4 6 2 3 - - 0.0
05/03:30am 21.3 22.1 16.3 73 3.0 ENE 7 9 4 5 - - 0.0
05/03:00am 21.4 21.7 16.1 72 3.2 ENE 9 13 5 7 - - 0.0
05/02:30am 21.8 21.8 16.3 71 3.3 SE 11 17 6 9 - - 0.0
05/02:00am 21.7 20.9 16.0 70 3.5 S 15 22 8 12 - - 0.0
05/01:30am 22.3 20.8 16.3 69 3.7 SSW 19 24 10 13 - - 0.0
05/01:00am 22.3 21.2 16.3 69 3.7 SW 17 24 9 13 - - 0.0
05/12:30am 25.1 24.6 13.9 49 6.6 W 9 17 5 9 - - 0.0
05/12:00am 24.7 24.2 13.9 51 6.4 SSW 9 11 5 6 - - 0.0
 
Date/Time
EDT
Temp
°C
App
Temp
°C
Dew
Point
°C
Rel
Hum
%
Delta-T
°C
Wind Press
QNH
hPa
Press
MSL
hPa
Rain since
9am
mm
Dir  Spd
km/h
Gust
km/h
Spd
kts
Gust
kts
04/11:30pm 26.8 26.3 12.5 41 8.4 ESE 7 13 4 7 - - 0.0
04/11:00pm 25.9 25.7 13.1 45 7.5 ESE 6 7 3 4 - - 0.0
04/10:30pm 26.6 25.5 13.0 43 8.0 E 11 13 6 7 - - 0.0
04/10:00pm 27.5 26.1 12.3 39 8.9 E 11 15 6 8 - - 0.0
04/09:30pm 27.1 26.8 12.7 41 8.5 E 6 7 3 4 - - 0.0
04/09:00pm 27.1 26.5 12.3 39 8.6 ESE 7 11 4 6 - - 0.0
04/08:30pm 27.9 27.2 11.9 37 9.3 ESE 7 9 4 5 - - 0.0
04/08:00pm 29.4 28.5 11.5 33 10.4 ESE 7 13 4 7 - - 0.0

Other Formats:

Comma delimited format used in spreadsheet applications
http://www.bom.gov.au/fwo/IDN60801/IDN60801.95705.axf

JavaScript Object Notation format (JSON) in row-major order
http://www.bom.gov.au/fwo/IDN60801/IDN60801.95705.json